Time;durP1;ratioP1;P1;durP2;ratioP2;P2;SDS_P1;SDS_P2;PMS_P1;PMS_P2;Temp;Humidity;BMP_temperature;BMP_pressure;BME280_temperature;BME280_humidity;BME280_pressure;Samples;Min_cycle;Max_cycle;Signal;HPM_P1;HPM_P2
2021/03/07 00:00:08;;;;;;;134.88;38.35;;;;;;;;;;8419667;28;20365;-77
2021/03/07 00:04:13;;;;;;;122.85;36.95;;;;;;;;;;8419528;28;20147;-78
2021/03/07 00:08:19;;;;;;;115.78;35.83;;;;;;;;;;8414019;28;20065;-78
2021/03/07 00:12:23;;;;;;;121.28;38.03;;;;;;;;;;8415159;28;20065;-77
2021/03/07 00:16:28;;;;;;;130.82;39.78;;;;;;;;;;8395612;28;20126;-78
2021/03/07 00:20:33;;;;;;;136.90;42.20;;;;;;;;;;8414568;28;20055;-77
2021/03/07 00:24:38;;;;;;;119.05;41.83;;;;;;;;;;8413401;28;20052;-78
2021/03/07 00:28:42;;;;;;;155.65;43.55;;;;;;;;;;8411542;28;20397;-77
2021/03/07 00:32:47;;;;;;;128.35;39.65;;;;;;;;;;8411052;28;20124;-77
2021/03/07 00:36:52;;;;;;;114.78;40.25;;;;;;;;;;8392102;28;20480;-77
2021/03/07 00:40:57;;;;;;;130.10;40.28;;;;;;;;;;8408290;28;20359;-78
2021/03/07 00:45:20;;;;;;;135.05;41.28;;;;;;;;;;8407321;28;20146;-77
2021/03/07 00:49:33;;;;;;;122.68;39.70;;;;;;;;;;8406372;28;20040;-77
2021/03/07 00:53:40;;;;;;;124.32;39.40;;;;;;;;;;8405888;28;20468;-77
2021/03/07 00:57:47;;;;;;;126.05;40.50;;;;;;;;;;8385440;28;20498;-77
2021/03/07 01:01:52;;;;;;;108.60;37.38;;;;;;;;;;8391247;28;20400;-77
2021/03/07 01:05:59;;;;;;;121.55;40.08;;;;;;;;;;8357117;28;20060;-78
2021/03/07 01:10:19;;;;;;;121.27;36.73;;;;;;;;;;8368175;28;20040;-78
2021/03/07 01:14:24;;;;;;;104.72;34.45;;;;;;;;;;8373416;28;20052;-79
2021/03/07 01:18:28;;;;;;;114.35;34.28;;;;;;;;;;8368166;28;20385;-78
2021/03/07 01:22:32;;;;;;;105.30;33.28;;;;;;;;;;8368145;28;20048;-78
2021/03/07 01:26:51;;;;;;;117.90;35.67;;;;;;;;;;8366577;28;20043;-79
2021/03/07 01:31:03;;;;;;;118.43;35.97;;;;;;;;;;8350831;28;20066;-78
2021/03/07 01:35:14;;;;;;;113.63;36.00;;;;;;;;;;8369568;28;20052;-79
2021/03/07 01:39:19;;;;;;;156.57;40.50;;;;;;;;;;8371992;28;20051;-77
2021/03/07 01:43:25;;;;;;;122.32;38.78;;;;;;;;;;8371215;28;20484;-77
2021/03/07 01:47:33;;;;;;;108.97;33.85;;;;;;;;;;8373793;28;20056;-75
2021/03/07 01:51:43;;;;;;;117.93;33.05;;;;;;;;;;8373726;28;20458;-76
2021/03/07 01:55:49;;;;;;;98.88;32.45;;;;;;;;;;8373313;28;20048;-79
2021/03/07 01:59:59;;;;;;;98.75;31.63;;;;;;;;;;8337358;28;20475;-77
2021/03/07 02:04:13;;;;;;;;;;;;;;;;;;8337366;28;20401;-78
2021/03/07 02:08:19;;;;;;;74.90;28.60;;;;;;;;;;8338423;28;20361;-78
2021/03/07 02:12:25;;;;;;;100.75;30.58;;;;;;;;;;8337657;28;20471;-78
2021/03/07 02:16:29;;;;;;;108.60;30.40;;;;;;;;;;8337505;28;20045;-78
2021/03/07 02:20:42;;;;;;;119.60;34.80;;;;;;;;;;8339477;28;20487;-78
2021/03/07 02:24:46;;;;;;;95.97;29.38;;;;;;;;;;8348461;28;20078;-79
2021/03/07 02:28:51;;;;;;;92.05;31.08;;;;;;;;;;8349632;28;20344;-78
2021/03/07 02:33:35;;;;;;;90.60;30.60;;;;;;;;;;8347425;28;20041;-77
2021/03/07 02:37:44;;;;;;;87.75;27.80;;;;;;;;;;8349163;28;20139;-78
2021/03/07 02:41:49;;;;;;;89.95;27.35;;;;;;;;;;8347631;28;20070;-77
2021/03/07 02:46:01;;;;;;;80.93;26.20;;;;;;;;;;8349176;28;20486;-78
2021/03/07 02:50:11;;;;;;;76.03;27.45;;;;;;;;;;8351511;28;20127;-78
2021/03/07 02:54:18;;;;;;;72.20;25.52;;;;;;;;;;8348019;28;20057;-79
2021/03/07 02:58:24;;;;;;;75.63;28.25;;;;;;;;;;8361012;28;20452;-80
2021/03/07 03:02:30;;;;;;;73.25;24.75;;;;;;;;;;8364526;28;20492;-78
2021/03/07 03:06:41;;;;;;;75.13;26.20;;;;;;;;;;8366615;28;20058;-79
2021/03/07 03:10:45;;;;;;;72.90;24.17;;;;;;;;;;8368652;28;20482;-78
2021/03/07 03:15:08;;;;;;;64.35;25.70;;;;;;;;;;8372780;28;20131;-79
2021/03/07 03:19:14;;;;;;;65.50;24.92;;;;;;;;;;8375308;28;20413;-78
2021/03/07 03:23:20;;;;;;;67.28;25.83;;;;;;;;;;8381394;28;20047;-79
2021/03/07 03:27:24;;;;;;;87.53;27.33;;;;;;;;;;8392430;28;20056;-80
2021/03/07 03:31:28;;;;;;;115.35;38.05;;;;;;;;;;8393114;28;20119;-79
2021/03/07 03:35:33;;;;;;;81.57;31.30;;;;;;;;;;8396512;28;20385;-79
2021/03/07 03:39:39;;;;;;;68.55;25.48;;;;;;;;;;8397170;28;20104;-79
2021/03/07 03:43:44;;;;;;;77.03;24.42;;;;;;;;;;8402795;28;20135;-80
2021/03/07 03:47:56;;;;;;;67.15;24.25;;;;;;;;;;8410402;28;20510;-80
2021/03/07 03:52:09;;;;;;;60.10;22.92;;;;;;;;;;8414195;28;20095;-80
2021/03/07 03:56:17;;;;;;;48.88;19.88;;;;;;;;;;8392711;28;20079;-80
2021/03/07 04:00:26;;;;;;;43.85;18.98;;;;;;;;;;8412182;28;20540;-80
2021/03/07 04:04:33;;;;;;;62.72;22.20;;;;;;;;;;8426311;28;20076;-80
2021/03/07 04:08:37;;;;;;;62.65;24.38;;;;;;;;;;8409196;28;20079;-80
2021/03/07 04:12:44;;;;;;;56.80;23.80;;;;;;;;;;8411612;28;20079;-80
2021/03/07 04:16:49;;;;;;;63.50;22.98;;;;;;;;;;8432675;28;20082;-80
2021/03/07 04:20:55;;;;;;;54.65;20.77;;;;;;;;;;8412655;28;20075;-80
2021/03/07 04:25:02;;;;;;;65.53;20.95;;;;;;;;;;8406460;28;20126;-80
2021/03/07 04:29:05;;;;;;;47.50;20.17;;;;;;;;;;8422362;28;20091;-80
2021/03/07 04:33:10;;;;;;;45.20;18.92;;;;;;;;;;8429968;28;20083;-78
2021/03/07 04:37:15;;;;;;;45.58;19.38;;;;;;;;;;8414397;28;20085;-80
2021/03/07 04:41:19;;;;;;;57.53;22.05;;;;;;;;;;8411975;28;20083;-81
2021/03/07 04:45:25;;;;;;;45.40;20.17;;;;;;;;;;8427848;28;20084;-80
2021/03/07 04:49:29;;;;;;;58.55;22.02;;;;;;;;;;8420683;28;20079;-80
2021/03/07 04:53:34;;;;;;;41.47;19.15;;;;;;;;;;8426101;28;20087;-80
2021/03/07 04:57:38;;;;;;;56.08;21.30;;;;;;;;;;8423040;28;20544;-80
2021/03/07 05:01:42;;;;;;;38.72;17.90;;;;;;;;;;8429864;28;20084;-77
2021/03/07 05:05:50;;;;;;;36.55;16.85;;;;;;;;;;8429098;28;20080;-80
2021/03/07 05:09:55;;;;;;;43.67;16.77;;;;;;;;;;8424550;28;20460;-80
2021/03/07 05:14:00;;;;;;;34.30;15.55;;;;;;;;;;8431398;28;20106;-79
2021/03/07 05:18:06;;;;;;;47.63;18.80;;;;;;;;;;8426438;28;20072;-80
2021/03/07 05:22:10;;;;;;;42.08;18.02;;;;;;;;;;8412135;28;20079;-79
2021/03/07 05:26:15;;;;;;;35.58;14.82;;;;;;;;;;8422248;28;20082;-81
2021/03/07 05:30:20;;;;;;;31.98;14.93;;;;;;;;;;8413098;28;20463;-81
2021/03/07 05:34:24;;;;;;;29.85;14.40;;;;;;;;;;8429765;28;20082;-78
2021/03/07 05:38:29;;;;;;;33.53;15.77;;;;;;;;;;8424452;28;20090;-78
2021/03/07 05:42:34;;;;;;;36.35;15.40;;;;;;;;;;8423332;28;20123;-81
2021/03/07 05:46:49;;;;;;;25.42;12.73;;;;;;;;;;8419275;28;20088;-81
2021/03/07 05:50:55;;;;;;;37.50;17.17;;;;;;;;;;8402849;28;20072;-81
2021/03/07 05:55:04;;;;;;;41.58;17.92;;;;;;;;;;8422477;28;20506;-80
2021/03/07 05:59:08;;;;;;;45.25;18.38;;;;;;;;;;8420782;28;20428;-80
2021/03/07 06:03:13;;;;;;;33.60;16.70;;;;;;;;;;8424378;28;20097;-80
2021/03/07 06:07:18;;;;;;;69.50;27.35;;;;;;;;;;8424632;28;20087;-78
2021/03/07 06:11:32;;;;;;;148.90;52.03;;;;;;;;;;8423724;28;20090;-81
2021/03/07 06:15:47;;;;;;;96.55;38.17;;;;;;;;;;8422323;28;20450;-81
2021/03/07 06:20:01;;;;;;;70.70;29.75;;;;;;;;;;8420540;28;20488;-80
2021/03/07 06:24:06;;;;;;;64.43;31.20;;;;;;;;;;8422789;28;20084;-80
2021/03/07 06:28:26;;;;;;;43.53;20.30;;;;;;;;;;8421429;28;20095;-81
2021/03/07 06:32:38;;;;;;;42.55;20.67;;;;;;;;;;8417825;28;20509;-81
2021/03/07 06:36:43;;;;;;;31.92;16.17;;;;;;;;;;8423201;28;20102;-80
2021/03/07 06:40:48;;;;;;;41.00;16.42;;;;;;;;;;8419058;28;20123;-80
2021/03/07 06:45:04;;;;;;;38.97;23.00;;;;;;;;;;8416110;28;20123;-80
2021/03/07 06:49:28;;;;;;;33.90;16.85;;;;;;;;;;8416098;28;20114;-82
2021/03/07 06:53:34;;;;;;;29.95;15.13;;;;;;;;;;8413976;28;20095;-81
2021/03/07 06:57:39;;;;;;;24.55;12.18;;;;;;;;;;8419111;28;20088;-79
2021/03/07 07:01:47;;;;;;;32.45;16.83;;;;;;;;;;8426286;28;20098;-80
2021/03/07 07:05:55;;;;;;;32.78;18.42;;;;;;;;;;8416540;28;20132;-80
2021/03/07 07:10:07;;;;;;;34.08;16.65;;;;;;;;;;8403417;28;20091;-79
2021/03/07 07:14:29;;;;;;;31.08;16.35;;;;;;;;;;8398075;28;20135;-78
2021/03/07 07:18:38;;;;;;;30.75;15.75;;;;;;;;;;8422915;28;20114;-78
2021/03/07 07:22:42;;;;;;;25.25;12.20;;;;;;;;;;8423119;28;20093;-78
2021/03/07 07:26:47;;;;;;;87.65;50.72;;;;;;;;;;8405793;28;20423;-80
2021/03/07 07:31:00;;;;;;;75.15;31.30;;;;;;;;;;8408107;28;20139;-80
2021/03/07 07:35:20;;;;;;;54.05;21.02;;;;;;;;;;8404617;28;20143;-81
2021/03/07 07:39:33;;;;;;;39.65;17.85;;;;;;;;;;8392921;28;20487;-80
2021/03/07 07:43:51;;;;;;;37.00;17.23;;;;;;;;;;8407662;28;20130;-77
2021/03/07 07:47:56;;;;;;;57.40;23.90;;;;;;;;;;8398066;28;20548;-77
2021/03/07 07:52:01;;;;;;;51.50;23.88;;;;;;;;;;8380526;28;20123;-79
2021/03/07 07:56:06;;;;;;;42.42;18.77;;;;;;;;;;8395431;28;20139;-76
2021/03/07 08:00:15;;;;;;;71.82;32.00;;;;;;;;;;8354929;28;20136;-77
2021/03/07 08:04:29;;;;;;;47.92;20.40;;;;;;;;;;8364320;28;20144;-77
2021/03/07 08:08:40;;;;;;;56.50;26.52;;;;;;;;;;8356971;28;20557;-78
2021/03/07 08:12:45;;;;;;;45.47;18.92;;;;;;;;;;8357972;28;20504;-78
2021/03/07 08:16:49;;;;;;;57.25;21.65;;;;;;;;;;8351588;28;20128;-79
2021/03/07 08:20:57;;;;;;;50.20;19.83;;;;;;;;;;8352603;28;20423;-77
2021/03/07 08:25:02;;;;;;;55.13;24.07;;;;;;;;;;8352461;28;20480;-78
2021/03/07 08:29:49;;;;;;;38.63;17.77;;;;;;;;;;8348728;28;20356;-78
2021/03/07 08:33:53;;;;;;;49.58;24.52;;;;;;;;;;8342484;28;20501;-78
2021/03/07 08:38:17;;;;;;;39.47;20.27;;;;;;;;;;8332104;28;20500;-78
2021/03/07 08:42:29;;;;;;;36.80;18.17;;;;;;;;;;8312150;28;20382;-77
2021/03/07 08:46:40;;;;;;;32.80;16.30;;;;;;;;;;8310253;28;20382;-77
2021/03/07 08:50:49;;;;;;;35.38;15.20;;;;;;;;;;8308113;28;20057;-77
2021/03/07 08:54:55;;;;;;;50.72;20.08;;;;;;;;;;8308230;28;20364;-79
2021/03/07 08:58:59;;;;;;;27.58;13.73;;;;;;;;;;8321778;28;20044;-77
2021/03/07 09:03:05;;;;;;;38.85;23.55;;;;;;;;;;8336412;28;20486;-77
2021/03/07 09:07:09;;;;;;;24.40;12.55;;;;;;;;;;8316441;28;20458;-77
2021/03/07 09:11:14;;;;;;;23.67;12.88;;;;;;;;;;8343397;28;20058;-77
2021/03/07 09:15:19;;;;;;;24.38;12.43;;;;;;;;;;8345334;28;20461;-77
2021/03/07 09:19:41;;;;;;;19.15;10.07;;;;;;;;;;8321056;28;20385;-78
2021/03/07 09:23:50;;;;;;;;;;;;;;;;;;8331258;28;20056;-77
2021/03/07 09:27:54;;;;;;;26.98;11.55;;;;;;;;;;8329606;28;20222;-78
2021/03/07 09:32:00;;;;;;;23.25;11.32;;;;;;;;;;8328233;28;20374;-77
2021/03/07 09:36:11;;;;;;;19.95;9.73;;;;;;;;;;8331122;28;20418;-75
2021/03/07 09:40:16;;;;;;;56.13;31.88;;;;;;;;;;8327908;28;20366;-77
2021/03/07 09:44:23;;;;;;;36.20;19.02;;;;;;;;;;8330873;28;20467;-76
2021/03/07 09:48:37;;;;;;;25.20;12.30;;;;;;;;;;8327016;28;20048;-77
2021/03/07 09:52:45;;;;;;;18.48;10.23;;;;;;;;;;8308840;28;20450;-78
2021/03/07 09:56:53;;;;;;;26.77;10.85;;;;;;;;;;8292920;28;20074;-77
2021/03/07 10:00:56;;;;;;;121.18;43.63;;;;;;;;;;8306856;28;20036;-76
2021/03/07 10:05:14;;;;;;;376.08;148.55;;;;;;;;;;8322200;28;20493;-77
2021/03/07 10:09:18;;;;;;;424.15;163.77;;;;;;;;;;8325003;28;20052;-77
2021/03/07 10:13:23;;;;;;;32.80;17.05;;;;;;;;;;8326798;28;20385;-77
2021/03/07 10:17:40;;;;;;;22.38;9.75;;;;;;;;;;8328564;28;20474;-76
2021/03/07 10:21:46;;;;;;;33.38;13.85;;;;;;;;;;8327725;28;20059;-78
2021/03/07 10:25:50;;;;;;;38.58;13.75;;;;;;;;;;8323338;28;20401;-76
2021/03/07 10:30:09;;;;;;;21.00;8.95;;;;;;;;;;8325355;28;20443;-77
2021/03/07 10:34:14;;;;;;;18.40;8.38;;;;;;;;;;8319028;28;20492;-74
2021/03/07 10:38:20;;;;;;;26.20;11.13;;;;;;;;;;8350839;28;20059;-77
2021/03/07 10:42:35;;;;;;;113.38;40.70;;;;;;;;;;8320847;28;20066;-76
2021/03/07 10:46:43;;;;;;;10.48;5.65;;;;;;;;;;8329313;28;20424;-76
2021/03/07 10:50:58;;;;;;;11.90;5.85;;;;;;;;;;8331121;28;20356;-76
2021/03/07 10:55:12;;;;;;;11.35;5.95;;;;;;;;;;8329252;28;20413;-76
2021/03/07 10:59:18;;;;;;;15.75;7.80;;;;;;;;;;8319416;28;20492;-76
2021/03/07 11:03:22;;;;;;;16.40;7.70;;;;;;;;;;8320284;28;20467;-80
2021/03/07 11:07:26;;;;;;;23.13;9.57;;;;;;;;;;8292332;28;20373;-77
2021/03/07 11:11:39;;;;;;;14.20;7.70;;;;;;;;;;8316372;28;20356;-78
2021/03/07 11:15:42;;;;;;;18.95;8.70;;;;;;;;;;8332368;28;20177;-77
2021/03/07 11:19:45;;;;;;;21.33;9.13;;;;;;;;;;8282884;28;20503;-79
2021/03/07 11:23:48;;;;;;;17.52;8.75;;;;;;;;;;8303907;28;20479;-76
2021/03/07 11:27:55;;;;;;;20.77;7.60;;;;;;;;;;8306048;28;20369;-76
2021/03/07 11:32:00;;;;;;;;;;;;;;;;;;8307153;28;20351;-76
2021/03/07 11:36:04;;;;;;;11.82;6.60;;;;;;;;;;8304370;28;20373;-77
2021/03/07 11:40:09;;;;;;;15.55;7.70;;;;;;;;;;8303402;28;20061;-78
2021/03/07 11:44:12;;;;;;;20.73;8.95;;;;;;;;;;8291710;28;20351;-78
2021/03/07 11:48:16;;;;;;;18.17;8.02;;;;;;;;;;8283311;28;20379;-76
2021/03/07 11:52:21;;;;;;;23.02;9.07;;;;;;;;;;8307164;28;20375;-78
2021/03/07 11:56:24;;;;;;;35.03;12.32;;;;;;;;;;8321640;28;20386;-77
2021/03/07 12:00:29;;;;;;;47.33;13.77;;;;;;;;;;8327408;28;20082;-75
2021/03/07 12:04:33;;;;;;;48.42;13.88;;;;;;;;;;8327377;28;20059;-76
2021/03/07 12:08:39;;;;;;;43.13;13.88;;;;;;;;;;8325103;28;20383;-77
2021/03/07 12:12:42;;;;;;;22.65;10.80;;;;;;;;;;8307423;28;20475;-76
2021/03/07 12:16:45;;;;;;;44.25;15.40;;;;;;;;;;8308602;28;20105;-77
2021/03/07 12:20:50;;;;;;;49.20;17.40;;;;;;;;;;8307485;28;20036;-77
2021/03/07 12:24:54;;;;;;;36.90;12.05;;;;;;;;;;8333003;28;20381;-77
2021/03/07 12:28:57;;;;;;;20.30;9.13;;;;;;;;;;8302105;28;20471;-77
2021/03/07 12:33:02;;;;;;;27.75;11.13;;;;;;;;;;8290893;28;20380;-77
2021/03/07 12:37:07;;;;;;;15.27;7.22;;;;;;;;;;8293656;28;20478;-79
2021/03/07 12:41:11;;;;;;;11.32;6.35;;;;;;;;;;8292989;28;20367;-77
2021/03/07 12:45:16;;;;;;;19.88;10.48;;;;;;;;;;8290618;28;20445;-77
2021/03/07 12:49:19;;;;;;;10.85;6.07;;;;;;;;;;8291881;28;20486;-74
2021/03/07 12:53:24;;;;;;;109.93;46.05;;;;;;;;;;8303375;28;20078;-76
2021/03/07 12:57:28;;;;;;;57.55;25.02;;;;;;;;;;8310267;28;20469;-75
2021/03/07 13:01:32;;;;;;;109.97;44.83;;;;;;;;;;8324562;28;20378;-76
2021/03/07 13:05:36;;;;;;;158.13;61.92;;;;;;;;;;8275431;28;20372;-77
2021/03/07 13:09:39;;;;;;;40.60;16.98;;;;;;;;;;8290959;28;20473;-76
2021/03/07 13:13:43;;;;;;;49.85;20.48;;;;;;;;;;8274880;28;20333;-76
2021/03/07 13:17:49;;;;;;;28.65;13.13;;;;;;;;;;8288829;28;20064;-77
2021/03/07 13:21:54;;;;;;;108.75;44.35;;;;;;;;;;8307605;28;20462;-76
2021/03/07 13:25:59;;;;;;;68.65;29.00;;;;;;;;;;8318331;28;20463;-76
2021/03/07 13:30:05;;;;;;;82.28;36.38;;;;;;;;;;8307028;28;20479;-76
2021/03/07 13:34:08;;;;;;;70.47;35.88;;;;;;;;;;8308407;28;20468;-77
2021/03/07 13:38:17;;;;;;;75.90;34.88;;;;;;;;;;8332606;28;20382;-78
2021/03/07 13:42:20;;;;;;;67.35;28.38;;;;;;;;;;8296804;28;20380;-76
2021/03/07 13:46:23;;;;;;;31.65;15.68;;;;;;;;;;8302266;28;20479;-76
2021/03/07 13:50:32;;;;;;;55.42;26.02;;;;;;;;;;8284755;28;20066;-77
2021/03/07 13:54:36;;;;;;;32.85;16.38;;;;;;;;;;8304724;28;20358;-76
2021/03/07 13:58:41;;;;;;;32.08;16.27;;;;;;;;;;8318604;28;20417;-78
2021/03/07 14:02:46;;;;;;;23.50;10.00;;;;;;;;;;8332867;28;20075;-77
2021/03/07 14:06:52;;;;;;;19.25;11.88;;;;;;;;;;8324899;28;20430;-76
2021/03/07 14:10:55;;;;;;;23.75;12.70;;;;;;;;;;8302261;28;20413;-77
2021/03/07 14:15:00;;;;;;;29.48;12.25;;;;;;;;;;8324499;28;20378;-78
2021/03/07 14:19:09;;;;;;;45.85;23.00;;;;;;;;;;8287185;28;20369;-77
2021/03/07 14:23:13;;;;;;;32.00;15.47;;;;;;;;;;8299340;28;20535;-77
2021/03/07 14:27:16;;;;;;;14.60;7.95;;;;;;;;;;8319404;28;20473;-76
2021/03/07 14:31:20;;;;;;;13.43;7.45;;;;;;;;;;8301786;28;20390;-79
2021/03/07 14:35:26;;;;;;;11.57;7.05;;;;;;;;;;8295095;28;20496;-76
2021/03/07 14:39:30;;;;;;;20.83;8.70;;;;;;;;;;8309383;28;20369;-76
2021/03/07 14:43:33;;;;;;;12.80;6.80;;;;;;;;;;8319407;28;20339;-78
2021/03/07 14:47:38;;;;;;;16.35;6.00;;;;;;;;;;8292385;28;20367;-76
2021/03/07 14:51:44;;;;;;;13.27;7.10;;;;;;;;;;8314507;28;20374;-77
2021/03/07 14:55:53;;;;;;;10.18;5.82;;;;;;;;;;8310503;28;20439;-76
2021/03/07 15:00:00;;;;;;;12.55;6.88;;;;;;;;;;8310096;28;20060;-78
2021/03/07 15:04:03;;;;;;;10.73;6.65;;;;;;;;;;8311163;28;20454;-77
2021/03/07 15:08:07;;;;;;;10.27;6.55;;;;;;;;;;8308796;28;20392;-76
2021/03/07 15:12:10;;;;;;;13.13;8.23;;;;;;;;;;8312845;28;20371;-77
2021/03/07 15:16:15;;;;;;;13.80;7.38;;;;;;;;;;8302740;28;20036;-76
2021/03/07 15:20:19;;;;;;;14.13;7.35;;;;;;;;;;8304129;28;20347;-77
2021/03/07 15:24:22;;;;;;;15.50;7.60;;;;;;;;;;8293812;28;20470;-77
2021/03/07 15:28:26;;;;;;;17.50;8.30;;;;;;;;;;8318917;28;20074;-78
2021/03/07 15:32:30;;;;;;;19.08;8.90;;;;;;;;;;8319759;28;20383;-77
2021/03/07 15:36:34;;;;;;;16.38;7.30;;;;;;;;;;8312371;28;20348;-79
2021/03/07 15:40:39;;;;;;;15.57;8.57;;;;;;;;;;8306744;28;20366;-79
2021/03/07 15:44:42;;;;;;;12.98;7.32;;;;;;;;;;8317327;28;20466;-78
2021/03/07 15:48:46;;;;;;;18.10;8.48;;;;;;;;;;8314550;28;20070;-75
2021/03/07 15:52:49;;;;;;;15.98;8.48;;;;;;;;;;8316136;28;20398;-75
2021/03/07 15:57:00;;;;;;;19.52;8.60;;;;;;;;;;8289121;28;20481;-76
2021/03/07 16:01:03;;;;;;;23.00;10.57;;;;;;;;;;8284921;28;20480;-78
2021/03/07 17:12:34;;;;;;;318.67;117.63;;;;;;;;;;8418360;27;20457;-77
2021/03/07 17:16:42;;;;;;;243.80;88.30;;;;;;;;;;8360976;27;20373;-78
2021/03/07 17:20:46;;;;;;;258.25;110.30;;;;;;;;;;8360902;27;20365;-78
2021/03/07 17:24:49;;;;;;;193.27;79.97;;;;;;;;;;8349959;28;20462;-78
2021/03/07 17:29:13;;;;;;;113.60;50.58;;;;;;;;;;8347468;28;20055;-78
2021/03/07 17:33:36;;;;;;;90.25;35.28;;;;;;;;;;8349103;28;20413;-77
2021/03/07 17:37:41;;;;;;;90.20;40.05;;;;;;;;;;8349191;28;20073;-77
2021/03/07 17:41:44;;;;;;;85.68;33.45;;;;;;;;;;8364669;28;20040;-77
2021/03/07 17:45:48;;;;;;;119.60;41.92;;;;;;;;;;8367953;28;20610;-77
2021/03/07 17:49:51;;;;;;;132.70;45.63;;;;;;;;;;8363071;27;20458;-77
2021/03/07 17:53:55;;;;;;;114.78;46.15;;;;;;;;;;8365394;28;20478;-78
2021/03/07 17:57:58;;;;;;;189.40;75.90;;;;;;;;;;8354418;28;20586;-75
2021/03/07 18:02:25;;;;;;;159.73;69.20;;;;;;;;;;8357381;28;20373;-75
2021/03/07 18:06:29;;;;;;;133.50;58.50;;;;;;;;;;8347940;28;20048;-75
2021/03/07 18:10:33;;;;;;;126.10;56.75;;;;;;;;;;8346853;28;20389;-78
2021/03/07 18:14:37;;;;;;;115.90;53.25;;;;;;;;;;8376019;28;20450;-76
2021/03/07 18:18:40;;;;;;;133.65;53.60;;;;;;;;;;8388499;28;20356;-77
2021/03/07 18:22:45;;;;;;;110.10;47.13;;;;;;;;;;8379801;27;20469;-77
2021/03/07 18:26:49;;;;;;;113.00;41.90;;;;;;;;;;8386756;28;20363;-77
2021/03/07 18:30:54;;;;;;;107.47;45.13;;;;;;;;;;8408980;28;20051;-77
2021/03/07 18:35:00;;;;;;;98.15;38.08;;;;;;;;;;8425069;28;20119;-76
2021/03/07 18:39:06;;;;;;;87.50;33.15;;;;;;;;;;8427495;28;20131;-77
2021/03/07 18:43:11;;;;;;;91.65;37.20;;;;;;;;;;8428700;28;20452;-77
2021/03/07 18:47:15;;;;;;;90.72;41.30;;;;;;;;;;8417500;28;20126;-77
2021/03/07 18:51:20;;;;;;;68.13;25.92;;;;;;;;;;8439548;28;20558;-76
2021/03/07 18:55:25;;;;;;;49.85;19.63;;;;;;;;;;8445353;28;20111;-77
2021/03/07 18:59:30;;;;;;;65.97;25.33;;;;;;;;;;8432320;28;20146;-76
2021/03/07 19:03:38;;;;;;;65.80;25.23;;;;;;;;;;8452193;28;20499;-77
2021/03/07 19:07:43;;;;;;;65.10;27.17;;;;;;;;;;8455510;28;20080;-76
2021/03/07 19:12:01;;;;;;;68.55;26.98;;;;;;;;;;8453825;28;20104;-77
2021/03/07 19:16:07;;;;;;;86.72;30.23;;;;;;;;;;8456923;28;20465;-77
2021/03/07 19:20:17;;;;;;;239.90;56.22;;;;;;;;;;8457086;28;20107;-77
2021/03/07 19:24:22;;;;;;;150.40;34.42;;;;;;;;;;8457705;28;20442;-76
2021/03/07 19:28:30;;;;;;;151.77;37.55;;;;;;;;;;8456691;28;20134;-76
2021/03/07 19:32:41;;;;;;;211.70;50.35;;;;;;;;;;8456123;28;20082;-77
2021/03/07 19:36:46;;;;;;;286.10;61.08;;;;;;;;;;8460624;28;20090;-76
2021/03/07 19:40:52;;;;;;;180.43;45.80;;;;;;;;;;8460901;28;20228;-77
2021/03/07 19:45:08;;;;;;;178.70;44.25;;;;;;;;;;8461235;28;20083;-77
2021/03/07 19:49:31;;;;;;;174.20;43.47;;;;;;;;;;8460319;28;20489;-78
2021/03/07 19:53:56;;;;;;;229.60;56.85;;;;;;;;;;8477149;28;20042;-77
2021/03/07 19:58:01;;;;;;;187.15;43.00;;;;;;;;;;8487362;28;20054;-78
2021/03/07 20:02:12;;;;;;;179.52;44.88;;;;;;;;;;8495121;28;20047;-79
2021/03/07 20:06:33;;;;;;;224.15;56.25;;;;;;;;;;8495421;28;20050;-78
2021/03/07 20:10:38;;;;;;;173.02;48.50;;;;;;;;;;8493320;28;20064;-78
2021/03/07 20:14:51;;;;;;;99.30;36.40;;;;;;;;;;8492666;28;20054;-78
2021/03/07 20:18:56;;;;;;;89.75;29.25;;;;;;;;;;8471174;28;20082;-78
2021/03/07 20:23:04;;;;;;;73.88;28.15;;;;;;;;;;8455803;28;20150;-78
2021/03/07 20:27:13;;;;;;;76.03;26.40;;;;;;;;;;8450419;28;20134;-76
2021/03/07 20:31:18;;;;;;;67.70;24.27;;;;;;;;;;8443726;28;20549;-78
2021/03/07 20:35:27;;;;;;;58.88;22.63;;;;;;;;;;8442822;28;20544;-79
2021/03/07 20:39:39;;;;;;;50.33;19.90;;;;;;;;;;8446534;28;20143;-79
2021/03/07 20:43:47;;;;;;;50.40;19.58;;;;;;;;;;8444573;28;20178;-77
2021/03/07 20:47:52;;;;;;;45.25;18.38;;;;;;;;;;8437727;28;20146;-77
2021/03/07 20:52:05;;;;;;;43.88;18.52;;;;;;;;;;8439373;28;20135;-77
2021/03/07 20:56:12;;;;;;;53.45;19.33;;;;;;;;;;8442482;28;20572;-77
2021/03/07 21:00:19;;;;;;;54.47;21.08;;;;;;;;;;8442015;28;20142;-78
2021/03/07 21:04:24;;;;;;;56.40;20.58;;;;;;;;;;8434093;28;20131;-77
2021/03/07 21:08:29;;;;;;;49.28;19.40;;;;;;;;;;8440204;28;20454;-78
2021/03/07 21:12:34;;;;;;;53.85;19.27;;;;;;;;;;8437663;28;20462;-77
2021/03/07 21:16:38;;;;;;;45.22;19.02;;;;;;;;;;8439955;28;20472;-77
2021/03/07 21:20:43;;;;;;;46.22;18.73;;;;;;;;;;8444963;28;20146;-77
2021/03/07 21:24:47;;;;;;;66.03;25.98;;;;;;;;;;8447545;28;20143;-76
2021/03/07 21:28:54;;;;;;;58.20;23.20;;;;;;;;;;8449282;28;20082;-77
2021/03/07 21:33:00;;;;;;;78.03;29.73;;;;;;;;;;8445042;28;20533;-77
2021/03/07 21:37:05;;;;;;;73.05;26.27;;;;;;;;;;8442628;28;20150;-77
2021/03/07 21:41:09;;;;;;;58.75;22.33;;;;;;;;;;8441640;28;20138;-76
2021/03/07 21:45:14;;;;;;;53.25;20.30;;;;;;;;;;8443537;28;20138;-76
2021/03/07 21:49:18;;;;;;;60.00;21.33;;;;;;;;;;8448075;28;20569;-77
2021/03/07 21:53:23;;;;;;;65.93;23.25;;;;;;;;;;8449014;28;20434;-76
2021/03/07 21:57:29;;;;;;;65.60;24.42;;;;;;;;;;8449059;28;20565;-76
2021/03/07 22:01:34;;;;;;;122.63;37.45;;;;;;;;;;8447098;28;20111;-78
2021/03/07 22:05:39;;;;;;;68.10;22.85;;;;;;;;;;8456851;28;20130;-77
2021/03/07 22:09:43;;;;;;;105.25;35.85;;;;;;;;;;8476334;28;20082;-78
2021/03/07 22:13:49;;;;;;;82.70;30.42;;;;;;;;;;8460767;28;20079;-77
2021/03/07 22:17:53;;;;;;;74.63;29.60;;;;;;;;;;8449883;28;20134;-76
2021/03/07 22:21:59;;;;;;;94.38;35.22;;;;;;;;;;8451421;28;20130;-77
2021/03/07 22:26:03;;;;;;;96.78;33.25;;;;;;;;;;8452089;28;20162;-76
2021/03/07 22:30:10;;;;;;;56.15;20.27;;;;;;;;;;8451264;28;20134;-77
2021/03/07 22:34:18;;;;;;;63.33;25.08;;;;;;;;;;8446833;28;20107;-78
2021/03/07 22:38:22;;;;;;;46.30;18.85;;;;;;;;;;8446926;28;20130;-78
2021/03/07 22:42:26;;;;;;;52.78;19.95;;;;;;;;;;8445629;28;20170;-77
2021/03/07 22:46:31;;;;;;;44.97;16.08;;;;;;;;;;8439689;28;20130;-77
2021/03/07 22:50:35;;;;;;;44.80;17.33;;;;;;;;;;8437095;28;20134;-78
2021/03/07 22:54:40;;;;;;;45.60;16.10;;;;;;;;;;8439619;28;20473;-77
2021/03/07 22:58:47;;;;;;;38.63;17.42;;;;;;;;;;8439633;28;20326;-79
2021/03/07 23:02:51;;;;;;;108.75;36.20;;;;;;;;;;8438180;28;20126;-77
2021/03/07 23:06:56;;;;;;;157.40;49.58;;;;;;;;;;8432579;28;20134;-78
2021/03/07 23:11:00;;;;;;;108.53;44.67;;;;;;;;;;8428368;27;20126;-77
2021/03/07 23:15:18;;;;;;;37.85;14.55;;;;;;;;;;8443127;28;20130;-76
2021/03/07 23:19:23;;;;;;;31.48;11.63;;;;;;;;;;8436404;28;20455;-79
2021/03/07 23:23:27;;;;;;;31.40;11.70;;;;;;;;;;8430293;28;20130;-79
2021/03/07 23:27:32;;;;;;;27.23;11.60;;;;;;;;;;8433507;27;20123;-79
2021/03/07 23:31:36;;;;;;;26.70;11.85;;;;;;;;;;8435175;27;20134;-79
2021/03/07 23:35:41;;;;;;;24.83;11.18;;;;;;;;;;8430307;28;20147;-77
2021/03/07 23:39:45;;;;;;;30.20;12.30;;;;;;;;;;8433234;28;20138;-77
2021/03/07 23:43:49;;;;;;;25.20;12.70;;;;;;;;;;8429885;28;20134;-78
2021/03/07 23:47:54;;;;;;;29.42;12.40;;;;;;;;;;8429353;28;20158;-78
2021/03/07 23:51:59;;;;;;;54.38;16.85;;;;;;;;;;8427758;28;20104;-78
2021/03/07 23:56:04;;;;;;;30.13;12.27;;;;;;;;;;8429285;28;20473;-80
